sensor_id;sensor_type;location;lat;lon;timestamp;pressure;altitude;pressure_sealevel;temperature;humidity
45939;BME280;31650;48.818;9.116;2023-04-20T00:07:28;97992.00;;;0.53;100.00
45939;BME280;31650;48.818;9.116;2023-04-20T00:22:28;97978.97;;;0.14;100.00
45939;BME280;31650;48.818;9.116;2023-04-20T00:37:29;97965.84;;;0.65;100.00
45939;BME280;31650;48.818;9.116;2023-04-20T00:52:30;97931.41;;;0.70;100.00
45939;BME280;31650;48.818;9.116;2023-04-20T01:07:30;97935.16;;;0.51;100.00
45939;BME280;31650;48.818;9.116;2023-04-20T01:22:31;97890.94;;;0.13;100.00
45939;BME280;31650;48.818;9.116;2023-04-20T01:37:31;97868.59;;;-0.22;100.00
45939;BME280;31650;48.818;9.116;2023-04-20T01:52:31;97859.34;;;-0.72;100.00
45939;BME280;31650;48.818;9.116;2023-04-20T02:07:32;97840.09;;;-0.39;100.00
45939;BME280;31650;48.818;9.116;2023-04-20T02:22:32;97836.06;;;0.01;100.00
45939;BME280;31650;48.818;9.116;2023-04-20T02:37:34;97815.31;;;-0.86;100.00
45939;BME280;31650;48.818;9.116;2023-04-20T02:52:34;97806.94;;;-0.55;100.00
45939;BME280;31650;48.818;9.116;2023-04-20T03:07:34;97789.16;;;-0.82;100.00
45939;BME280;31650;48.818;9.116;2023-04-20T03:22:34;97789.25;;;-0.30;100.00
45939;BME280;31650;48.818;9.116;2023-04-20T03:37:35;97781.47;;;-0.85;100.00
45939;BME280;31650;48.818;9.116;2023-04-20T03:52:36;97777.25;;;-1.23;100.00
45939;BME280;31650;48.818;9.116;2023-04-20T04:07:36;97771.88;;;-1.69;100.00
45939;BME280;31650;48.818;9.116;2023-04-20T04:22:36;97769.41;;;-1.70;100.00
45939;BME280;31650;48.818;9.116;2023-04-20T04:37:37;97773.81;;;-1.61;100.00
45939;BME280;31650;48.818;9.116;2023-04-20T04:52:37;97765.47;;;-1.48;100.00
45939;BME280;31650;48.818;9.116;2023-04-20T05:07:37;97767.13;;;-0.66;100.00
45939;BME280;31650;48.818;9.116;2023-04-20T05:22:38;97769.75;;;-0.22;100.00
45939;BME280;31650;48.818;9.116;2023-04-20T05:37:39;97778.72;;;1.47;100.00
45939;BME280;31650;48.818;9.116;2023-04-20T05:52:40;97749.88;;;3.00;100.00
45939;BME280;31650;48.818;9.116;2023-04-20T06:07:40;97715.56;;;3.71;100.00
45939;BME280;31650;48.818;9.116;2023-04-20T06:22:41;97705.06;;;4.65;100.00
45939;BME280;31650;48.818;9.116;2023-04-20T06:37:42;97698.19;;;5.42;100.00
45939;BME280;31650;48.818;9.116;2023-04-20T06:52:42;97686.69;;;5.12;100.00
45939;BME280;31650;48.818;9.116;2023-04-20T07:07:42;97678.81;;;6.58;93.87
45939;BME280;31650;48.818;9.116;2023-04-20T07:22:43;97668.38;;;7.89;77.47
45939;BME280;31650;48.818;9.116;2023-04-20T07:37:43;97661.72;;;7.39;75.17
45939;BME280;31650;48.818;9.116;2023-04-20T07:52:43;97647.75;;;8.60;77.79
45939;BME280;31650;48.818;9.116;2023-04-20T08:07:43;97656.22;;;8.19;73.88
45939;BME280;31650;48.818;9.116;2023-04-20T08:22:45;97646.75;;;9.50;70.09
45939;BME280;31650;48.818;9.116;2023-04-20T08:37:45;97645.19;;;8.72;73.72
45939;BME280;31650;48.818;9.116;2023-04-20T08:52:45;97651.31;;;7.02;84.53
45939;BME280;31650;48.818;9.116;2023-04-20T09:07:56;97659.53;;;6.74;98.12
45939;BME280;31650;48.818;9.116;2023-04-20T09:22:57;97649.53;;;6.61;100.00
45939;BME280;31650;48.818;9.116;2023-04-20T09:38:11;97643.41;;;6.39;100.00
45939;BME280;31650;48.818;9.116;2023-04-20T09:53:15;97636.31;;;6.93;97.54
45939;BME280;31650;48.818;9.116;2023-04-20T10:08:15;97638.19;;;6.93;93.27
45939;BME280;31650;48.818;9.116;2023-04-20T10:23:15;97626.75;;;6.91;95.80
45939;BME280;31650;48.818;9.116;2023-04-20T10:38:30;97613.44;;;6.96;94.93
45939;BME280;31650;48.818;9.116;2023-04-20T10:53:31;97580.81;;;7.11;100.00
45939;BME280;31650;48.818;9.116;2023-04-20T11:08:41;97578.50;;;6.88;100.00
45939;BME280;31650;48.818;9.116;2023-04-20T11:23:42;97571.59;;;6.58;100.00
45939;BME280;31650;48.818;9.116;2023-04-20T11:38:43;97579.47;;;6.47;100.00
45939;BME280;31650;48.818;9.116;2023-04-20T11:53:43;97592.75;;;6.42;100.00
45939;BME280;31650;48.818;9.116;2023-04-20T12:08:44;97571.75;;;6.37;100.00
45939;BME280;31650;48.818;9.116;2023-04-20T12:23:44;97578.47;;;6.61;100.00
45939;BME280;31650;48.818;9.116;2023-04-20T12:38:49;97567.66;;;6.54;100.00
45939;BME280;31650;48.818;9.116;2023-04-20T12:53:49;97538.81;;;6.81;100.00
45939;BME280;31650;48.818;9.116;2023-04-20T13:08:49;97536.06;;;7.48;100.00
45939;BME280;31650;48.818;9.116;2023-04-20T13:23:50;97543.19;;;7.16;100.00
45939;BME280;31650;48.818;9.116;2023-04-20T13:38:50;97516.97;;;7.16;100.00
45939;BME280;31650;48.818;9.116;2023-04-20T13:53:52;97519.06;;;7.08;100.00
45939;BME280;31650;48.818;9.116;2023-04-20T14:08:52;97504.06;;;7.25;100.00
45939;BME280;31650;48.818;9.116;2023-04-20T14:23:52;97509.09;;;7.01;100.00
45939;BME280;31650;48.818;9.116;2023-04-20T14:38:54;97515.72;;;6.92;100.00
45939;BME280;31650;48.818;9.116;2023-04-20T14:53:54;97532.16;;;6.64;100.00
45939;BME280;31650;48.818;9.116;2023-04-20T15:08:54;97569.66;;;6.32;100.00
45939;BME280;31650;48.818;9.116;2023-04-20T15:23:55;97564.81;;;6.08;100.00
45939;BME280;31650;48.818;9.116;2023-04-20T15:38:55;97560.69;;;6.25;100.00
45939;BME280;31650;48.818;9.116;2023-04-20T15:53:55;97566.25;;;6.10;100.00
45939;BME280;31650;48.818;9.116;2023-04-20T16:08:56;97557.53;;;6.08;100.00
45939;BME280;31650;48.818;9.116;2023-04-20T16:23:56;97579.13;;;6.08;100.00
45939;BME280;31650;48.818;9.116;2023-04-20T16:38:56;97597.78;;;6.03;100.00
45939;BME280;31650;48.818;9.116;2023-04-20T16:53:57;97590.72;;;6.02;100.00
45939;BME280;31650;48.818;9.116;2023-04-20T17:08:58;97617.22;;;5.92;100.00
45939;BME280;31650;48.818;9.116;2023-04-20T17:24:05;97600.16;;;5.85;100.00
45939;BME280;31650;48.818;9.116;2023-04-20T17:39:05;97622.34;;;5.80;100.00
45939;BME280;31650;48.818;9.116;2023-04-20T17:54:06;97610.50;;;5.81;100.00
45939;BME280;31650;48.818;9.116;2023-04-20T18:09:10;97600.13;;;5.78;100.00
45939;BME280;31650;48.818;9.116;2023-04-20T18:24:13;97636.59;;;5.74;100.00
45939;BME280;31650;48.818;9.116;2023-04-20T18:39:13;97621.22;;;5.68;100.00
45939;BME280;31650;48.818;9.116;2023-04-20T18:54:14;97645.53;;;5.74;100.00
45939;BME280;31650;48.818;9.116;2023-04-20T19:09:14;97666.13;;;5.82;100.00
45939;BME280;31650;48.818;9.116;2023-04-20T19:24:14;97669.97;;;5.94;100.00
45939;BME280;31650;48.818;9.116;2023-04-20T19:39:14;97686.03;;;5.81;100.00
45939;BME280;31650;48.818;9.116;2023-04-20T19:54:15;97686.03;;;5.81;100.00
45939;BME280;31650;48.818;9.116;2023-04-20T20:09:16;97659.88;;;5.82;100.00
45939;BME280;31650;48.818;9.116;2023-04-20T20:24:16;97678.09;;;5.73;100.00
45939;BME280;31650;48.818;9.116;2023-04-20T20:39:17;97672.00;;;5.64;100.00
45939;BME280;31650;48.818;9.116;2023-04-20T20:54:17;97663.50;;;5.61;100.00
45939;BME280;31650;48.818;9.116;2023-04-20T21:09:17;97654.56;;;5.10;100.00
45939;BME280;31650;48.818;9.116;2023-04-20T21:24:17;97650.19;;;4.88;100.00
45939;BME280;31650;48.818;9.116;2023-04-20T21:39:18;97650.34;;;4.43;100.00
45939;BME280;31650;48.818;9.116;2023-04-20T21:54:19;97649.19;;;4.01;100.00
45939;BME280;31650;48.818;9.116;2023-04-20T22:09:19;97645.00;;;3.39;100.00
45939;BME280;31650;48.818;9.116;2023-04-20T22:24:19;97658.94;;;2.74;100.00
45939;BME280;31650;48.818;9.116;2023-04-20T22:39:20;97668.50;;;2.99;100.00
45939;BME280;31650;48.818;9.116;2023-04-20T22:54:20;97671.72;;;2.72;100.00
45939;BME280;31650;48.818;9.116;2023-04-20T23:09:20;97675.34;;;2.56;100.00
45939;BME280;31650;48.818;9.116;2023-04-20T23:24:21;97667.16;;;2.49;100.00
45939;BME280;31650;48.818;9.116;2023-04-20T23:39:21;97667.38;;;2.40;100.00
45939;BME280;31650;48.818;9.116;2023-04-20T23:54:21;97646.41;;;2.43;100.00
